Latest Weather Observations for Hillarys Point Boat Harbour

IDW60901

Issued at 5:01 pm WST Tuesday 24 January 2017 (issued every 10 minutes, with the page automatically refreshed every 10 minutes)

About weather observations | Map of Perth area stations | Latest observations for Perth area | Other Formats
Station Details ID: 009265 Name: HILLARYS BOAT HARBOUR NTC AWS Lat: -31.83 Lon: 115.74 Height: 0.0 m
Data from the previous 72 hours. | See also: Recent months for locations in Western Australia
Date/Time
WST
Temp
°C
App
Temp
°C
Dew
Point
°C
Rel
Hum
%
Delta-T
°C
Wind Press
QNH
hPa
Press
MSL
hPa
Rain since
9am
mm
Dir  Spd
km/h
Gust
km/h
Spd
kts
Gust
kts
24/05:00pm 23.2 - - - - SSW 11 28 6 15 1014.2 1014.2 -
24/04:30pm 23.1 - - - - SSW 11 20 6 11 1014.3 1014.3 -
24/04:00pm 23.1 - - - - SSW 11 24 6 13 1014.5 1014.5 -
24/03:30pm 22.8 - - - - SSW 13 24 7 13 1014.7 1014.7 -
24/03:00pm 22.9 - - - - SSW 13 26 7 14 1014.9 1014.9 -
24/02:30pm 23.3 - - - - SSW 11 24 6 13 1015.1 1015.1 -
24/02:00pm 23.4 - - - - SSW 11 28 6 15 1015.3 1015.3 -
24/01:30pm 22.7 - - - - SSW 17 26 9 14 1015.6 1015.6 -
24/01:00pm 23.0 - - - - SSW 15 28 8 15 1015.8 1015.8 -
24/12:30pm 24.2 - - - - SSW 11 26 6 14 1016.0 1016.0 -
24/12:00pm 28.8 - - - - SE 7 15 4 8 1016.2 1016.2 -
24/11:30am 27.7 - - - - E 7 17 4 9 1016.5 1016.5 -
24/11:00am 26.9 - - - - E 6 17 3 9 1016.8 1016.8 -
24/10:30am 26.1 - - - - E 7 17 4 9 1017.1 1017.1 -
24/10:00am 24.9 - - - - E 13 24 7 13 1017.2 1017.2 -
24/09:30am 23.1 - - - - ENE 15 30 8 16 1017.3 1017.3 -
24/09:00am 21.9 - - - - ENE 20 32 11 17 1017.2 1017.2 -
24/08:30am 20.8 - - - - ENE 19 30 10 16 1017.3 1017.3 -
24/08:00am 19.6 - - - - ENE 20 33 11 18 1017.5 1017.5 -
24/07:30am 18.4 - - - - E 19 30 10 16 1017.5 1017.5 -
24/07:00am 17.5 - - - - E 19 30 10 16 1017.4 1017.4 -
24/06:30am 16.9 - - - - ENE 20 32 11 17 1017.0 1017.0 -
24/06:00am 16.8 - - - - E 17 30 9 16 1016.6 1016.6 -
24/05:30am 16.9 - - - - E 19 35 10 19 1016.4 1016.4 -
24/05:00am 17.2 - - - - E 17 28 9 15 1016.3 1016.3 -
24/04:30am 17.5 - - - - E 15 26 8 14 1016.3 1016.3 -
24/04:00am 16.9 - - - - E 4 11 2 6 1016.4 1016.4 -
24/03:30am 16.9 - - - - ESE 4 11 2 6 1016.3 1016.3 -
24/03:00am 16.6 - - - - SE 2 9 1 5 1016.2 1016.2 -
24/02:30am 16.9 - - - - SSE 7 13 4 7 1016.3 1016.3 -
24/02:00am 17.0 - - - - SSE 7 13 4 7 1016.3 1016.3 -
24/01:30am 17.5 - - - - SSE 9 17 5 9 1016.4 1016.4 -
24/01:00am 17.8 - - - - SSE 11 22 6 12 1016.5 1016.5 -
24/12:30am 18.4 - - - - SSE 9 19 5 10 1016.6 1016.6 -
24/12:00am 18.8 - - - - S 9 20 5 11 1016.7 1016.7 -
 
Date/Time
WST
Temp
°C
App
Temp
°C
Dew
Point
°C
Rel
Hum
%
Delta-T
°C
Wind Press
QNH
hPa
Press
MSL
hPa
Rain since
9am
mm
Dir  Spd
km/h
Gust
km/h
Spd
kts
Gust
kts
23/11:30pm 19.2 - - - - SSE 7 17 4 9 1016.9 1016.9 -
23/11:00pm 19.7 - - - - SSE 9 22 5 12 1017.1 1017.1 -
23/10:30pm 19.6 - - - - SSE 7 13 4 7 1017.1 1017.1 -
23/10:00pm 19.9 - - - - S 7 20 4 11 1017.1 1017.1 -
23/09:30pm 19.8 - - - - SSW 11 26 6 14 1017.1 1017.1 -
23/09:00pm 19.5 - - - - SSW 11 24 6 13 1016.9 1016.9 -
23/08:30pm 19.5 - - - - SSW 13 28 7 15 1016.7 1016.7 -
23/08:00pm 19.6 - - - - SSW 15 30 8 16 1016.5 1016.5 -
23/07:30pm 19.6 - - - - SSW 19 37 10 20 1016.3 1016.3 -
23/07:00pm 19.9 - - - - SSW 15 37 8 20 1016.0 1016.0 -
23/06:30pm 19.9 - - - - SSW 20 35 11 19 1015.8 1015.8 -
23/06:00pm 20.1 - - - - SSW 19 35 10 19 1015.4 1015.4 -
23/05:30pm 20.0 - - - - SSW 20 35 11 19 1015.3 1015.3 -
23/05:00pm 20.2 - - - - SSW 20 33 11 18 1015.2 1015.2 -
23/04:30pm 20.2 - - - - SSW 17 33 9 18 1015.2 1015.2 -
23/04:00pm 20.4 - - - - SSW 20 32 11 17 1015.3 1015.3 -
23/03:30pm 20.6 - - - - SSW 17 33 9 18 1015.4 1015.4 -
23/03:00pm 20.4 - - - - SSW 19 32 10 17 1015.5 1015.5 -
23/02:30pm 20.6 - - - - SSW 19 33 10 18 1015.6 1015.6 -
23/02:00pm 21.1 - - - - SSW 17 32 9 17 1015.8 1015.8 -
23/01:30pm 20.4 - - - - SSW 19 32 10 17 1016.0 1016.0 -
23/01:00pm 20.5 - - - - SSW 17 32 9 17 1016.1 1016.1 -
23/12:30pm 20.4 - - - - SSW 17 26 9 14 1016.2 1016.2 -
23/12:00pm 20.5 - - - - SSW 15 26 8 14 1016.4 1016.4 -
23/11:30am 20.5 - - - - SSW 13 24 7 13 1016.6 1016.6 -
23/11:00am 20.2 - - - - SSW 13 22 7 12 1016.7 1016.7 -
23/10:30am 20.1 - - - - SSW 13 24 7 13 1016.6 1016.6 -
23/10:00am 20.2 - - - - SSW 9 20 5 11 1016.6 1016.6 -
23/09:30am 19.8 - - - - SSW 9 17 5 9 1016.6 1016.6 -
23/09:00am 19.8 - - - - S 6 13 3 7 1016.5 1016.5 -
23/08:30am 19.4 - - - - S 7 15 4 8 1016.7 1016.7 -
23/08:00am 18.9 - - - - SE 4 9 2 5 1016.7 1016.7 -
23/07:30am 18.5 - - - - ESE 4 9 2 5 1016.4 1016.4 -
23/07:00am 18.1 - - - - E 2 6 1 3 1016.2 1016.2 -
23/06:30am 17.2 - - - - E 2 6 1 3 1015.7 1015.7 -
23/06:00am 16.2 - - - - ESE 2 6 1 3 1015.3 1015.3 -
23/05:30am 16.4 - - - - ESE 2 9 1 5 1014.9 1014.9 -
23/05:00am 16.6 - - - - SE 2 7 1 4 1014.5 1014.5 -
23/04:30am 16.7 - - - - SE 2 9 1 5 1014.2 1014.2 -
23/04:00am 16.9 - - - - SE 4 11 2 6 1014.0 1014.0 -
23/03:30am 16.7 - - - - ESE 2 9 1 5 1013.8 1013.8 -
23/03:00am 17.2 - - - - SE 4 13 2 7 1013.7 1013.7 -
23/02:30am 17.6 - - - - SE 4 13 2 7 1013.7 1013.7 -
23/02:00am 18.4 - - - - SSE 7 17 4 9 1013.6 1013.6 -
23/01:30am 19.4 - - - - SSW 11 24 6 13 1013.7 1013.7 -
23/01:00am 19.4 - - - - SSW 9 26 5 14 1013.6 1013.6 -
23/12:30am 19.5 - - - - SSW 15 32 8 17 1013.6 1013.6 -
23/12:00am 19.4 - - - - SSW 17 37 9 20 1013.4 1013.4 -
 
Date/Time
WST
Temp
°C
App
Temp
°C
Dew
Point
°C
Rel
Hum
%
Delta-T
°C
Wind Press
QNH
hPa
Press
MSL
hPa
Rain since
9am
mm
Dir  Spd
km/h
Gust
km/h
Spd
kts
Gust
kts
22/11:30pm 19.5 - - - - SSW 13 26 7 14 1013.4 1013.4 -
22/11:00pm 19.4 - - - - SSW 13 32 7 17 1013.4 1013.4 -
22/10:30pm 19.4 - - - - SSW 15 37 8 20 1013.6 1013.6 -
22/10:00pm 19.4 - - - - SSW 19 32 10 17 1013.6 1013.6 -
22/09:30pm 19.4 - - - - SSW 17 37 9 20 1013.3 1013.3 -
22/09:00pm 19.5 - - - - SSW 20 37 11 20 1013.0 1013.0 -
22/08:30pm 19.6 - - - - SSW 20 32 11 17 1012.8 1012.8 -
22/08:00pm 19.7 - - - - SSW 20 39 11 21 1012.5 1012.5 -
22/07:30pm 19.7 - - - - SSW 20 33 11 18 1012.4 1012.4 -
22/07:00pm 19.8 - - - - SSW 20 35 11 19 1012.2 1012.2 -
22/06:30pm 20.0 - - - - SSW 20 32 11 17 1011.8 1011.7 -
22/06:00pm 20.0 - - - - SW 20 35 11 19 1011.2 1011.1 -
22/05:30pm 20.2 - - - - SW 20 35 11 19 1011.0 1010.9 -
22/05:00pm 20.2 - - - - SW 22 35 12 19 1010.8 1010.7 -
22/04:30pm 20.3 - - - - SW 22 39 12 21 1010.7 1010.6 -
22/04:00pm 20.6 - - - - SW 19 32 10 17 1010.7 1010.6 -
22/03:30pm 20.4 - - - - SW 20 37 11 20 1010.8 1010.7 -
22/03:00pm 20.5 - - - - SW 20 37 11 20 1010.9 1010.8 -
22/02:30pm 20.6 - - - - SSW 19 32 10 17 1011.1 1011.0 -
22/02:00pm 20.5 - - - - SSW 19 32 10 17 1011.2 1011.1 -
22/01:30pm 20.4 - - - - SSW 22 39 12 21 1011.2 1011.1 -
22/01:00pm 20.4 - - - - SSW 19 33 10 18 1011.0 1010.9 -
22/12:30pm 20.6 - - - - SSW 20 35 11 19 1011.0 1010.9 -
22/12:00pm 20.6 - - - - SSW 20 39 11 21 1010.9 1010.8 -
22/11:30am 20.9 - - - - SSW 19 35 10 19 1010.8 1010.7 -
22/11:00am 20.8 - - - - SSW 15 33 8 18 1010.7 1010.6 -
22/10:30am 20.6 - - - - SSW 17 32 9 17 1010.6 1010.5 -
22/10:00am 20.6 - - - - SSW 19 33 10 18 1010.4 1010.3 -
22/09:30am 20.6 - - - - SSW 15 33 8 18 1010.2 1010.1 -
22/09:00am 20.8 - - - - SSW 9 22 5 12 1010.0 1009.9 -
22/08:30am 20.3 - - - - SSW 9 20 5 11 1010.1 1010.0 -
22/08:00am 20.0 - - - - SSW 9 26 5 14 1010.1 1010.0 -
22/07:30am 19.9 - - - - S 11 33 6 18 1009.8 1009.7 -
22/07:00am 19.6 - - - - S 9 24 5 13 1009.5 1009.4 -
22/06:30am 19.6 - - - - S 13 30 7 16 1009.2 1009.1 -
22/06:00am 19.5 - - - - S 11 28 6 15 1008.7 1008.6 -
22/05:30am 19.5 - - - - S 9 26 5 14 1008.4 1008.3 -
22/05:00am 19.0 - - - - S 7 20 4 11 1008.3 1008.2 -
22/04:30am 19.5 - - - - S 9 24 5 13 1008.0 1007.9 -
22/04:00am 19.8 - - - - SSW 13 24 7 13 1007.9 1007.8 -
22/03:30am 19.9 - - - - SSW 13 26 7 14 1007.7 1007.6 -
22/03:00am 19.9 - - - - SSW 15 30 8 16 1007.6 1007.5 -
22/02:30am 20.0 - - - - SSW 15 28 8 15 1007.4 1007.3 -
22/02:00am 20.0 - - - - SSW 15 30 8 16 1007.4 1007.3 -
22/01:30am 20.2 - - - - SSW 15 32 8 17 1007.6 1007.5 -
22/01:00am 20.4 - - - - SSW 13 22 7 12 1007.8 1007.7 -
22/12:30am 20.4 - - - - SSW 17 35 9 19 1007.7 1007.6 -
22/12:00am 20.5 - - - - SSW 15 30 8 16 1007.9 1007.8 -
 
Date/Time
WST
Temp
°C
App
Temp
°C
Dew
Point
°C
Rel
Hum
%
Delta-T
°C
Wind Press
QNH
hPa
Press
MSL
hPa
Rain since
9am
mm
Dir  Spd
km/h
Gust
km/h
Spd
kts
Gust
kts
21/11:30pm 20.7 - - - - SSW 13 24 7 13 1008.2 1008.1 -
21/11:00pm 20.8 - - - - SSW 17 30 9 16 1008.2 1008.1 -
21/10:30pm 20.8 - - - - SSW 15 28 8 15 1008.1 1008.0 -
21/10:00pm 20.9 - - - - SSW 15 32 8 17 1008.0 1007.9 -
21/09:30pm 20.9 - - - - SSW 13 22 7 12 1008.0 1007.9 -
21/09:00pm 20.9 - - - - SSW 11 26 6 14 1007.9 1007.8 -
21/08:30pm 20.8 - - - - SSW 13 24 7 13 1007.7 1007.6 -
21/08:00pm 20.9 - - - - SSW 11 26 6 14 1007.5 1007.4 -
21/07:30pm 21.0 - - - - SSW 17 32 9 17 1007.2 1007.1 -
21/07:00pm 21.2 - - - - SSW 17 32 9 17 1007.0 1006.9 -
21/06:30pm 21.4 - - - - SSW 17 33 9 18 1006.7 1006.6 -
21/06:00pm 21.4 - - - - SSW 19 32 10 17 1006.4 1006.3 -
21/05:30pm 21.7 - - - - SSW 19 35 10 19 1006.0 1005.9 -

Latest Capital City Observations: Canberra | Sydney | Melbourne | Brisbane | Adelaide | Perth | Hobart | Darwin

Other Formats:

Comma delimited format used in spreadsheet applications
http://www.bom.gov.au/fwo/IDW60901/IDW60901.95605.axf

JavaScript Object Notation format (JSON) in row-major order
http://www.bom.gov.au/fwo/IDW60901/IDW60901.95605.json